Time;durP1;ratioP1;P1;durP2;ratioP2;P2;SDS_P1;SDS_P2;PMS_P1;PMS_P2;Temp;Humidity;BMP_temperature;BMP_pressure;BME280_temperature;BME280_humidity;BME280_pressure;Samples;Min_cycle;Max_cycle;Signal;HPM_P1;HPM_P2
2021/04/05 00:01:30;;;;;;;5.50;2.10;;;2.00;63.50;;;;;;5197672;28;20582;-64
2021/04/05 00:04:03;;;;;;;7.78;2.97;;;2.00;63.60;;;;;;5188005;28;20049;-64
2021/04/05 00:06:34;;;;;;;5.90;2.42;;;1.90;64.30;;;;;;5185377;28;20456;-65
2021/04/05 00:09:06;;;;;;;6.70;2.22;;;1.80;63.20;;;;;;5186500;28;20041;-64
2021/04/05 00:11:38;;;;;;;5.22;2.15;;;1.90;63.40;;;;;;5187153;28;20050;-64
2021/04/05 00:14:09;;;;;;;5.38;1.98;;;1.80;63.10;;;;;;5186511;28;20404;-64
2021/04/05 00:16:41;;;;;;;5.97;2.35;;;1.80;62.90;;;;;;5188116;28;20057;-64
2021/04/05 00:19:12;;;;;;;6.88;2.42;;;1.80;64.20;;;;;;5185309;28;20073;-64
2021/04/05 00:21:44;;;;;;;5.28;1.95;;;1.80;62.90;;;;;;5185641;28;20200;-64
2021/04/05 00:24:16;;;;;;;5.97;1.92;;;1.80;64.10;;;;;;5184390;28;20050;-64
2021/04/05 00:26:47;;;;;;;6.38;2.70;;;1.60;64.50;;;;;;5185987;28;20416;-64
2021/04/05 00:29:19;;;;;;;7.00;1.95;;;1.60;64.80;;;;;;5189151;28;20046;-64
2021/04/05 00:31:51;;;;;;;4.43;1.80;;;1.60;65.20;;;;;;5187568;28;20033;-64
2021/04/05 00:34:22;;;;;;;4.85;1.90;;;1.60;64.60;;;;;;5186219;28;20498;-64
2021/04/05 00:36:53;;;;;;;6.45;2.05;;;1.60;64.70;;;;;;5183363;28;20057;-64
2021/04/05 00:39:25;;;;;;;7.25;2.13;;;1.60;64.50;;;;;;5193640;28;20104;-64
2021/04/05 00:41:57;;;;;;;6.85;2.22;;;1.60;64.80;;;;;;5187587;28;20049;-64
2021/04/05 00:44:29;;;;;;;6.95;1.92;;;1.60;65.60;;;;;;5185480;28;20041;-64
2021/04/05 00:47:02;;;;;;;5.35;1.65;;;1.60;65.70;;;;;;5188957;28;20046;-64
2021/04/05 00:49:34;;;;;;;6.13;2.08;;;1.50;65.60;;;;;;5193127;28;20069;-64
2021/04/05 00:52:06;;;;;;;6.28;2.08;;;1.40;65.70;;;;;;5183323;28;20042;-64
2021/04/05 00:54:39;;;;;;;5.65;2.08;;;1.40;65.10;;;;;;5184323;28;20554;-64
2021/04/05 00:57:10;;;;;;;7.22;1.95;;;1.50;65.10;;;;;;5186290;28;20038;-64
2021/04/05 00:59:42;;;;;;;7.82;2.47;;;1.50;65.10;;;;;;5187106;28;20042;-64
2021/04/05 01:02:13;;;;;;;6.15;2.08;;;1.60;64.40;;;;;;5183509;28;20033;-64
2021/04/05 01:04:45;;;;;;;6.50;2.13;;;1.60;64.30;;;;;;5185033;28;20045;-64
2021/04/05 01:07:17;;;;;;;7.40;1.95;;;1.70;64.60;;;;;;5183520;28;20046;-64
2021/04/05 01:09:48;;;;;;;4.72;2.00;;;1.70;64.50;;;;;;5185390;28;20049;-64
2021/04/05 01:12:20;;;;;;;5.57;2.17;;;1.70;64.40;;;;;;5183648;28;20115;-64
2021/04/05 01:14:51;;;;;;;6.03;2.33;;;1.70;63.90;;;;;;5186539;28;20030;-65
2021/04/05 01:17:23;;;;;;;4.57;1.90;;;1.60;63.90;;;;;;5185954;28;20049;-64
2021/04/05 01:19:54;;;;;;;5.00;1.80;;;1.60;63.70;;;;;;5185178;28;20127;-64
2021/04/05 01:22:26;;;;;;;5.43;2.00;;;1.70;63.80;;;;;;5185736;28;20056;-64
2021/04/05 01:24:58;;;;;;;5.85;2.33;;;1.60;63.90;;;;;;5186256;28;20116;-64
2021/04/05 01:27:29;;;;;;;4.15;1.77;;;1.70;64.00;;;;;;5185570;28;20069;-64
2021/04/05 01:30:06;;;;;;;4.70;1.90;;;1.60;63.80;;;;;;5188104;28;20045;-64
2021/04/05 01:32:37;;;;;;;5.55;2.05;;;1.60;64.60;;;;;;5185079;28;20477;-64
2021/04/05 01:35:09;;;;;;;4.88;1.80;;;1.50;65.30;;;;;;5185160;28;20048;-64
2021/04/05 01:37:41;;;;;;;5.00;1.90;;;1.40;65.20;;;;;;5184898;28;20073;-64
2021/04/05 01:40:13;;;;;;;5.30;1.80;;;1.40;65.10;;;;;;5183867;28;20152;-64
2021/04/05 01:42:44;;;;;;;4.72;1.80;;;1.30;65.30;;;;;;5183436;28;20120;-64
2021/04/05 01:45:17;;;;;;;6.85;2.33;;;1.30;65.00;;;;;;5186421;28;20141;-64
2021/04/05 01:47:49;;;;;;;4.63;1.70;;;1.30;65.00;;;;;;5184514;28;20112;-64
2021/04/05 01:50:20;;;;;;;6.03;1.80;;;1.30;64.60;;;;;;5184617;28;20032;-64
2021/04/05 01:52:52;;;;;;;5.32;1.85;;;1.40;64.50;;;;;;5185374;28;20064;-64
2021/04/05 01:55:24;;;;;;;4.82;1.90;;;1.40;64.90;;;;;;5186915;28;20033;-65
2021/04/05 01:57:55;;;;;;;5.22;2.10;;;1.40;64.80;;;;;;5186757;28;20072;-64
2021/04/05 02:00:29;;;;;;;5.30;1.92;;;1.40;65.40;;;;;;5185025;28;20049;-64
2021/04/05 02:03:08;;;;;;;6.93;1.80;;;1.30;65.30;;;;;;5191467;28;20049;-64
2021/04/05 02:06:06;;;;;;;5.28;2.03;;;1.20;65.30;;;;;;5186729;28;20149;-64
2021/04/05 02:08:38;;;;;;;3.97;1.80;;;1.30;64.60;;;;;;5200312;28;20133;-64
2021/04/05 02:11:26;;;;;;;5.55;1.90;;;1.40;64.40;;;;;;5181780;28;20389;-64
2021/04/05 02:13:58;;;;;;;6.97;2.08;;;1.40;65.10;;;;;;5187320;28;20630;-64
2021/04/05 02:16:30;;;;;;;4.35;1.80;;;1.30;65.00;;;;;;5184532;28;20136;-64
2021/04/05 02:19:03;;;;;;;8.63;2.30;;;1.20;65.90;;;;;;5183011;28;20042;-64
2021/04/05 02:21:34;;;;;;;4.60;2.08;;;1.30;65.30;;;;;;5183761;28;20042;-66
2021/04/05 02:24:06;;;;;;;5.97;2.00;;;1.20;65.80;;;;;;5189131;28;20045;-66
2021/04/05 02:26:38;;;;;;;4.22;1.83;;;1.10;66.20;;;;;;5186160;28;20530;-64
2021/04/05 02:29:11;;;;;;;6.05;1.83;;;1.10;65.70;;;;;;5182137;28;20089;-64
2021/04/05 02:31:43;;;;;;;6.93;2.10;;;1.10;65.90;;;;;;5185955;28;20565;-64
2021/04/05 02:34:15;;;;;;;7.47;1.92;;;1.10;65.70;;;;;;5183317;28;20074;-64
2021/04/05 02:36:46;;;;;;;5.25;1.77;;;1.10;66.10;;;;;;5186128;28;20503;-63
2021/04/05 02:39:18;;;;;;;5.93;1.90;;;1.10;66.10;;;;;;5183924;28;20111;-63
2021/04/05 02:41:52;;;;;;;5.13;2.10;;;1.20;65.10;;;;;;5182033;28;20129;-65
2021/04/05 02:44:24;;;;;;;6.32;2.35;;;1.20;65.10;;;;;;5187499;28;20139;-63
2021/04/05 02:46:56;;;;;;;5.72;2.22;;;1.30;65.60;;;;;;5188969;28;20045;-64
2021/04/05 02:49:27;;;;;;;3.95;1.63;;;1.30;65.40;;;;;;5191697;28;20421;-64
2021/04/05 02:51:59;;;;;;;5.40;1.98;;;1.30;64.60;;;;;;5185802;28;20562;-64
2021/04/05 02:54:30;;;;;;;5.20;1.90;;;1.40;65.10;;;;;;5187858;28;20300;-64
2021/04/05 02:57:02;;;;;;;4.47;1.95;;;1.40;64.30;;;;;;5187168;28;20081;-64
2021/04/05 02:59:34;;;;;;;3.92;1.60;;;1.30;64.80;;;;;;5191550;28;20049;-64
2021/04/05 03:02:06;;;;;;;5.45;2.33;;;1.30;65.30;;;;;;5187887;28;20133;-64
2021/04/05 03:04:39;;;;;;;6.45;2.15;;;1.30;65.80;;;;;;5189343;28;20045;-64
2021/04/05 03:07:10;;;;;;;3.60;1.63;;;1.20;65.80;;;;;;5189484;28;20675;-64
2021/04/05 03:09:42;;;;;;;5.22;1.98;;;1.20;66.00;;;;;;5184395;28;20175;-64
2021/04/05 03:12:13;;;;;;;8.07;2.00;;;1.20;65.40;;;;;;5188948;28;20103;-64
2021/04/05 03:14:45;;;;;;;5.85;2.00;;;1.20;65.60;;;;;;5186928;28;20119;-64
2021/04/05 03:17:18;;;;;;;5.28;2.00;;;1.30;65.90;;;;;;5185366;28;20053;-63
2021/04/05 03:19:51;;;;;;;5.60;1.92;;;1.30;65.20;;;;;;5172352;28;20046;-63
2021/04/05 03:22:23;;;;;;;5.47;1.98;;;1.40;66.00;;;;;;5189150;28;20050;-63
2021/04/05 03:24:55;;;;;;;6.57;1.92;;;1.30;65.60;;;;;;5189149;28;20034;-64
2021/04/05 03:27:26;;;;;;;4.38;1.70;;;1.20;65.80;;;;;;5186448;28;20753;-63
2021/04/05 03:30:00;;;;;;;4.15;1.60;;;1.10;66.70;;;;;;5188515;28;20077;-63
2021/04/05 03:32:33;;;;;;;5.88;1.98;;;1.10;66.70;;;;;;5186062;28;20542;-63
2021/04/05 03:35:09;;;;;;;5.70;2.08;;;1.10;66.30;;;;;;5188213;28;20419;-63
2021/04/05 03:37:43;;;;;;;5.05;2.20;;;1.10;66.20;;;;;;5186782;28;20041;-63
2021/04/05 03:40:15;;;;;;;4.45;2.03;;;1.00;66.20;;;;;;5187893;28;20676;-63
2021/04/05 03:43:13;;;;;;;4.38;1.92;;;0.90;67.10;;;;;;5188880;28;20858;-63
2021/04/05 03:45:54;;;;;;;5.50;2.15;;;0.90;67.10;;;;;;5187561;28;20099;-63
2021/04/05 03:48:42;;;;;;;7.00;2.80;;;0.90;67.00;;;;;;5194150;28;20479;-63
2021/04/05 03:51:26;;;;;;;6.35;1.70;;;0.90;66.80;;;;;;5187266;28;20050;-62
2021/04/05 03:54:08;;;;;;;5.00;2.13;;;0.90;67.10;;;;;;5187242;28;20037;-62
2021/04/05 03:56:51;;;;;;;4.38;1.83;;;0.80;67.60;;;;;;5186682;28;20049;-62
2021/04/05 03:59:32;;;;;;;6.78;2.50;;;0.80;67.50;;;;;;5188726;28;20052;-63
2021/04/05 04:02:11;;;;;;;4.63;1.83;;;0.90;66.50;;;;;;5186204;28;20057;-63
2021/04/05 04:05:08;;;;;;;5.15;2.08;;;0.80;67.00;;;;;;5188840;28;20123;-63
2021/04/05 04:07:55;;;;;;;5.75;2.17;;;0.60;67.20;;;;;;5183600;28;20380;-63
2021/04/05 04:10:30;;;;;;;6.07;2.47;;;0.60;67.30;;;;;;5188383;28;20060;-63
2021/04/05 04:13:07;;;;;;;5.93;2.10;;;0.60;66.90;;;;;;5189255;28;20045;-63
2021/04/05 04:15:40;;;;;;;5.20;2.22;;;0.40;67.60;;;;;;5186077;28;20046;-63
2021/04/05 04:18:14;;;;;;;6.18;2.00;;;0.40;68.10;;;;;;5187626;28;20105;-64
2021/04/05 04:20:46;;;;;;;6.05;2.20;;;0.50;68.30;;;;;;5169107;28;20149;-63
2021/04/05 04:23:18;;;;;;;4.70;1.60;;;0.50;67.40;;;;;;5189678;28;20499;-62
2021/04/05 04:25:52;;;;;;;6.22;2.00;;;0.60;67.80;;;;;;5187090;28;20045;-63
2021/04/05 04:28:24;;;;;;;5.93;2.35;;;0.60;68.60;;;;;;5186133;28;20046;-63
2021/04/05 04:30:56;;;;;;;8.43;2.80;;;0.60;68.50;;;;;;5188392;28;20507;-63
2021/04/05 04:33:29;;;;;;;6.47;2.42;;;0.60;68.00;;;;;;5191192;28;20073;-63
2021/04/05 04:36:01;;;;;;;5.20;1.92;;;0.70;67.70;;;;;;5184020;28;20057;-64
2021/04/05 04:38:33;;;;;;;6.63;1.73;;;0.70;68.10;;;;;;5184930;28;20052;-63
2021/04/05 04:41:05;;;;;;;4.45;1.63;;;0.70;67.80;;;;;;5189197;28;20060;-63
2021/04/05 04:43:37;;;;;;;5.13;2.10;;;0.80;67.70;;;;;;5193758;28;20160;-63
2021/04/05 04:46:08;;;;;;;5.97;1.63;;;0.80;68.10;;;;;;5185751;28;21035;-63
2021/04/05 04:49:04;;;;;;;4.22;1.75;;;0.70;67.90;;;;;;5193443;28;20045;-63
2021/04/05 04:51:36;;;;;;;5.78;1.83;;;0.60;68.30;;;;;;5167680;28;20045;-63
2021/04/05 04:54:10;;;;;;;4.85;1.80;;;0.70;68.30;;;;;;5184121;28;20049;-63
2021/04/05 04:56:42;;;;;;;8.25;2.28;;;0.70;68.10;;;;;;5181598;28;20054;-63
2021/04/05 04:59:15;;;;;;;5.43;2.10;;;0.70;68.30;;;;;;5189022;28;20042;-63
2021/04/05 05:01:47;;;;;;;5.43;2.03;;;0.70;68.80;;;;;;5184689;28;20081;-63
2021/04/05 05:04:29;;;;;;;4.70;1.83;;;0.70;68.20;;;;;;5183909;28;20131;-63
2021/04/05 05:07:01;;;;;;;4.25;1.77;;;0.80;68.10;;;;;;5186866;28;20048;-65
2021/04/05 05:09:33;;;;;;;6.07;2.15;;;0.80;68.00;;;;;;5188107;28;20120;-63
2021/04/05 05:12:06;;;;;;;6.93;1.75;;;0.80;68.10;;;;;;5185329;28;20046;-63
2021/04/05 05:14:38;;;;;;;7.13;2.30;;;0.80;68.30;;;;;;5184568;28;20823;-64
2021/04/05 05:17:11;;;;;;;6.38;1.80;;;0.80;68.40;;;;;;5187340;28;20060;-64
2021/04/05 05:19:44;;;;;;;4.80;2.10;;;0.80;68.30;;;;;;5187840;28;20148;-63
2021/04/05 05:22:19;;;;;;;7.72;3.03;;;0.90;67.90;;;;;;5185275;28;20054;-63
2021/04/05 05:24:51;;;;;;;6.80;2.70;;;0.90;66.60;;;;;;5181369;28;20111;-63
2021/04/05 05:27:25;;;;;;;5.20;2.20;;;0.90;67.10;;;;;;5185182;28;20046;-62
2021/04/05 05:29:57;;;;;;;4.40;1.92;;;1.00;67.70;;;;;;5186544;28;20482;-63
2021/04/05 05:32:29;;;;;;;4.85;1.65;;;1.10;67.20;;;;;;5185407;28;20095;-63
2021/04/05 05:35:01;;;;;;;5.50;2.03;;;1.20;66.90;;;;;;5193304;28;20123;-64
2021/04/05 05:37:33;;;;;;;5.65;2.38;;;1.40;66.30;;;;;;5182247;28;21071;-63
2021/04/05 05:40:06;;;;;;;7.10;2.60;;;1.40;65.40;;;;;;5187102;28;20042;-63
2021/04/05 05:43:32;;;;;;;5.47;2.17;;;1.50;65.20;;;;;;5185836;28;20053;-62
2021/04/05 05:46:08;;;;;;;6.53;2.20;;;1.70;65.70;;;;;;5142368;28;20547;-62
2021/04/05 05:49:09;;;;;;;7.15;2.30;;;1.80;65.80;;;;;;5183655;28;20156;-63
2021/04/05 05:51:56;;;;;;;6.40;2.53;;;2.00;64.50;;;;;;5184127;28;20048;-63
2021/04/05 05:54:39;;;;;;;5.72;1.90;;;2.10;62.70;;;;;;5186487;28;20041;-62
2021/04/05 05:57:20;;;;;;;5.40;2.05;;;2.20;63.10;;;;;;5184221;28;20141;-62
2021/04/05 06:00:07;;;;;;;4.53;1.50;;;2.40;62.60;;;;;;5184281;28;20129;-62
2021/04/05 06:02:48;;;;;;;4.25;1.88;;;2.60;61.80;;;;;;5182171;28;20495;-64
2021/04/05 06:05:28;;;;;;;4.40;1.60;;;2.70;61.50;;;;;;5183337;28;20107;-62
2021/04/05 06:08:24;;;;;;;5.47;1.70;;;2.90;61.30;;;;;;5184970;28;20042;-62
2021/04/05 06:11:46;;;;;;;4.75;1.90;;;3.10;60.90;;;;;;5186460;28;20587;-62
2021/04/05 06:14:35;;;;;;;6.47;2.38;;;3.20;60.40;;;;;;5130483;28;20117;-62
2021/04/05 06:17:37;;;;;;;7.53;2.35;;;3.40;59.80;;;;;;5132621;28;20062;-62
2021/04/05 06:20:48;;;;;;;8.32;3.60;;;3.50;60.30;;;;;;5184313;28;20083;-62
2021/04/05 06:23:26;;;;;;;6.53;2.45;;;3.60;60.00;;;;;;5188590;28;20041;-62
2021/04/05 06:26:11;;;;;;;4.78;1.75;;;3.60;59.50;;;;;;5190014;28;20092;-62
2021/04/05 06:28:52;;;;;;;7.40;2.10;;;3.70;59.20;;;;;;5189062;28;20045;-63
2021/04/05 06:31:47;;;;;;;6.65;2.65;;;3.80;58.30;;;;;;5189770;28;20061;-64
2021/04/05 06:34:33;;;;;;;5.10;1.88;;;4.00;58.50;;;;;;5189989;28;20883;-62
2021/04/05 06:37:23;;;;;;;5.30;1.83;;;4.30;58.50;;;;;;5193962;28;20171;-62
2021/04/05 06:40:02;;;;;;;6.35;2.20;;;4.40;58.00;;;;;;5196898;28;20056;-62
2021/04/05 06:42:59;;;;;;;6.55;2.47;;;4.50;59.80;;;;;;5198227;28;20037;-62
2021/04/05 06:45:43;;;;;;;7.72;2.67;;;4.70;58.30;;;;;;5196650;28;20041;-62
2021/04/05 06:48:29;;;;;;;7.28;2.28;;;4.90;57.00;;;;;;5194786;28;20061;-62
2021/04/05 06:51:04;;;;;;;4.97;2.10;;;5.00;57.00;;;;;;5194537;28;20048;-62
2021/04/05 06:54:05;;;;;;;7.82;2.58;;;5.20;57.00;;;;;;5187526;28;20050;-62
2021/04/05 06:56:51;;;;;;;6.63;2.33;;;5.30;57.30;;;;;;5198781;28;20052;-62
2021/04/05 06:59:33;;;;;;;5.27;1.90;;;5.50;56.50;;;;;;5198148;28;20429;-62
2021/04/05 07:02:20;;;;;;;5.30;2.22;;;5.70;55.70;;;;;;5193017;28;20050;-62
2021/04/05 07:05:03;;;;;;;5.45;2.05;;;5.90;55.00;;;;;;5194092;28;20044;-62
2021/04/05 07:07:52;;;;;;;7.50;3.20;;;6.10;53.40;;;;;;5196255;28;20466;-62
2021/04/05 07:10:35;;;;;;;5.10;1.75;;;6.40;52.00;;;;;;5193645;28;20054;-63
2021/04/05 07:13:31;;;;;;;4.65;2.15;;;6.60;50.10;;;;;;5207454;28;20077;-63
2021/04/05 07:16:57;;;;;;;4.25;1.83;;;6.80;49.30;;;;;;5192021;28;20104;-62
2021/04/05 07:19:45;;;;;;;4.18;1.70;;;7.10;48.50;;;;;;5150239;28;20432;-62
2021/04/05 07:22:55;;;;;;;6.40;1.92;;;7.30;47.90;;;;;;5183805;28;20061;-63
2021/04/05 07:25:43;;;;;;;5.50;1.60;;;7.50;47.60;;;;;;5191656;28;20045;-63
2021/04/05 07:28:39;;;;;;;6.18;2.08;;;7.60;48.00;;;;;;5192976;28;20076;-62
2021/04/05 07:31:37;;;;;;;4.22;1.63;;;7.60;47.90;;;;;;5186063;28;20121;-63
2021/04/05 07:34:38;;;;;;;6.90;1.90;;;7.40;48.30;;;;;;5188452;28;20420;-62
2021/04/05 07:37:33;;;;;;;4.30;1.60;;;7.30;48.50;;;;;;5195052;28;20053;-62
2021/04/05 07:40:22;;;;;;;6.47;2.28;;;7.30;50.30;;;;;;5195465;28;20062;-62
2021/04/05 07:43:27;;;;;;;3.73;1.63;;;7.60;48.80;;;;;;5192157;28;20037;-62
2021/04/05 07:46:17;;;;;;;5.03;2.00;;;7.70;47.90;;;;;;5189586;28;20377;-65
2021/04/05 07:49:01;;;;;;;3.00;1.30;;;7.90;44.50;;;;;;5195166;28;20049;-63
2021/04/05 07:51:52;;;;;;;4.47;1.95;;;8.20;41.40;;;;;;5188066;28;20053;-62
2021/04/05 07:54:27;;;;;;;3.58;1.52;;;8.60;42.90;;;;;;5189396;28;20048;-62
2021/04/05 07:57:23;;;;;;;3.53;1.52;;;8.70;37.20;;;;;;5202915;28;20073;-63
2021/04/05 08:00:09;;;;;;;5.30;1.70;;;9.10;35.10;;;;;;5191210;28;20164;-63
2021/04/05 08:02:56;;;;;;;3.35;1.40;;;9.10;35.10;;;;;;5190038;28;20053;-63
2021/04/05 08:06:01;;;;;;;3.80;1.55;;;9.30;33.70;;;;;;5191286;28;20046;-64
2021/04/05 08:08:57;;;;;;;3.95;1.50;;;9.80;33.40;;;;;;5187227;28;20045;-62
2021/04/05 08:11:47;;;;;;;3.67;1.58;;;10.00;31.30;;;;;;5189556;28;20380;-62
2021/04/05 08:14:52;;;;;;;5.15;1.98;;;10.40;31.60;;;;;;5188463;28;20050;-66
2021/04/05 08:17:57;;;;;;;4.38;1.65;;;10.70;31.10;;;;;;5187807;28;20058;-63
2021/04/05 08:20:54;;;;;;;3.47;1.67;;;10.80;28.50;;;;;;5187716;28;20041;-63
2021/04/05 08:24:03;;;;;;;6.15;1.60;;;10.90;29.60;;;;;;5188276;28;20100;-63
2021/04/05 08:26:53;;;;;;;4.00;1.60;;;11.20;29.90;;;;;;5191074;28;20127;-66
2021/04/05 08:29:47;;;;;;;4.03;1.80;;;11.50;29.70;;;;;;5186217;28;20174;-63
2021/04/05 08:32:36;;;;;;;2.50;1.38;;;11.60;28.50;;;;;;5188056;28;20119;-66
2021/04/05 08:35:31;;;;;;;3.30;1.58;;;11.70;29.30;;;;;;5186794;28;20045;-63
2021/04/05 08:38:33;;;;;;;5.22;2.00;;;11.80;28.30;;;;;;5185598;28;20150;-66
2021/04/05 08:41:56;;;;;;;2.60;1.55;;;12.30;29.50;;;;;;5186397;28;20101;-63
2021/04/05 08:45:03;;;;;;;3.13;1.60;;;12.60;27.30;;;;;;5168519;28;20042;-63
2021/04/05 08:47:38;;;;;;;4.47;1.88;;;12.70;28.20;;;;;;5183003;28;20057;-65
2021/04/05 08:50:14;;;;;;;4.45;1.85;;;12.60;28.20;;;;;;5193755;28;20048;-63
2021/04/05 08:52:49;;;;;;;3.40;1.80;;;12.60;28.10;;;;;;5188019;28;20124;-63
2021/04/05 08:55:26;;;;;;;3.63;1.75;;;12.50;26.50;;;;;;5186318;28;20383;-63
2021/04/05 08:58:11;;;;;;;3.83;1.48;;;12.50;28.30;;;;;;5189433;28;20045;-64
2021/04/05 09:00:47;;;;;;;3.08;1.50;;;12.50;27.70;;;;;;5186488;28;20054;-63
2021/04/05 09:03:24;;;;;;;4.07;1.60;;;12.60;28.30;;;;;;5174611;28;20148;-65
2021/04/05 09:05:56;;;;;;;6.30;2.15;;;12.50;27.30;;;;;;5187841;28;20049;-62
2021/04/05 09:08:28;;;;;;;3.25;1.60;;;12.70;27.70;;;;;;5186066;28;20066;-62
2021/04/05 09:11:05;;;;;;;3.65;1.60;;;12.70;28.00;;;;;;5185232;28;20060;-63
2021/04/05 09:13:58;;;;;;;3.90;1.80;;;12.80;27.80;;;;;;5188707;28;20049;-62
2021/04/05 09:16:51;;;;;;;4.85;1.90;;;12.50;27.50;;;;;;5185637;28;20833;-63
2021/04/05 09:19:59;;;;;;;4.40;1.77;;;12.40;28.00;;;;;;5185211;28;20042;-63
2021/04/05 09:23:07;;;;;;;3.60;1.75;;;12.40;28.20;;;;;;5188302;28;20046;-63
2021/04/05 09:26:00;;;;;;;3.78;1.77;;;12.40;28.00;;;;;;5187259;28;20537;-63
2021/04/05 09:28:38;;;;;;;4.97;1.90;;;12.50;28.60;;;;;;5190084;28;20045;-64
2021/04/05 09:31:16;;;;;;;4.35;1.80;;;12.70;28.20;;;;;;5189112;28;20045;-63
2021/04/05 09:34:00;;;;;;;4.88;1.58;;;12.90;28.70;;;;;;5186455;28;20175;-65
2021/04/05 09:36:53;;;;;;;4.03;1.80;;;12.70;27.60;;;;;;5193206;28;20168;-66
2021/04/05 09:39:41;;;;;;;4.47;1.80;;;12.50;28.50;;;;;;5191508;28;20041;-62
2021/04/05 09:42:17;;;;;;;4.50;1.70;;;12.40;28.10;;;;;;5186302;28;20085;-63
2021/04/05 09:45:09;;;;;;;4.50;1.92;;;12.40;28.60;;;;;;5188067;28;20520;-66
2021/04/05 09:48:18;;;;;;;6.05;1.90;;;12.50;28.80;;;;;;5185042;28;20116;-63
2021/04/05 09:50:56;;;;;;;4.22;1.83;;;12.80;29.20;;;;;;5185023;28;20137;-64
2021/04/05 09:54:01;;;;;;;4.20;1.83;;;12.90;28.70;;;;;;5186735;28;20042;-63
2021/04/05 09:56:37;;;;;;;5.32;2.03;;;12.90;28.90;;;;;;5186965;28;20049;-66
2021/04/05 09:59:16;;;;;;;4.15;2.00;;;12.80;28.30;;;;;;5186838;28;20073;-64
2021/04/05 10:01:51;;;;;;;4.38;2.03;;;12.60;28.30;;;;;;5185722;28;20054;-66
2021/04/05 10:04:25;;;;;;;4.20;1.90;;;12.60;28.30;;;;;;5186752;28;20057;-63
2021/04/05 10:06:57;;;;;;;5.30;2.10;;;12.40;28.80;;;;;;5172496;28;20045;-62
2021/04/05 10:09:31;;;;;;;4.53;1.90;;;12.20;29.40;;;;;;5186502;28;20103;-62
2021/04/05 10:12:06;;;;;;;6.25;2.10;;;12.30;29.40;;;;;;5184116;28;20134;-66
2021/04/05 10:14:41;;;;;;;5.88;2.63;;;12.30;29.10;;;;;;5182145;28;20058;-63
2021/04/05 10:17:21;;;;;;;5.35;1.90;;;12.40;29.30;;;;;;5185930;28;20541;-62
2021/04/05 10:19:57;;;;;;;3.67;1.88;;;12.50;28.80;;;;;;5189064;28;20152;-63
2021/04/05 10:22:37;;;;;;;3.70;1.85;;;12.70;28.80;;;;;;5185833;28;20077;-63
2021/04/05 10:25:11;;;;;;;4.18;1.90;;;12.70;28.30;;;;;;5186537;28;20474;-63
2021/04/05 10:27:44;;;;;;;3.83;1.80;;;12.70;29.20;;;;;;5182669;28;20125;-63
2021/04/05 10:30:18;;;;;;;4.20;1.70;;;12.70;28.40;;;;;;5184928;28;20061;-63
2021/04/05 10:32:50;;;;;;;3.15;1.80;;;12.70;29.50;;;;;;5185177;28;20398;-63
2021/04/05 10:35:27;;;;;;;4.95;2.10;;;12.60;29.40;;;;;;5185976;28;20052;-62
2021/04/05 10:38:04;;;;;;;5.30;2.10;;;12.60;29.00;;;;;;5186256;28;20111;-62
2021/04/05 10:40:37;;;;;;;5.60;2.42;;;12.50;28.80;;;;;;5187072;28;20041;-63
2021/04/05 10:43:15;;;;;;;3.25;1.60;;;12.80;29.70;;;;;;5185913;28;20041;-62
2021/04/05 10:45:59;;;;;;;3.92;1.80;;;13.10;29.00;;;;;;5187650;28;20096;-65
2021/04/05 10:48:40;;;;;;;4.57;2.00;;;13.20;29.00;;;;;;5184928;28;20065;-63
2021/04/05 10:51:30;;;;;;;3.80;1.80;;;13.40;29.20;;;;;;5183907;28;20388;-63
2021/04/05 10:54:04;;;;;;;3.35;1.90;;;13.50;29.10;;;;;;5183813;28;20045;-65
2021/04/05 10:56:47;;;;;;;4.55;2.13;;;13.60;28.50;;;;;;5185371;28;20081;-63
2021/04/05 10:59:25;;;;;;;3.53;1.73;;;13.80;29.30;;;;;;5188377;28;20465;-66
2021/04/05 11:02:01;;;;;;;4.47;1.95;;;14.00;27.40;;;;;;5187038;28;20535;-63
2021/04/05 11:04:33;;;;;;;3.63;2.00;;;13.90;28.20;;;;;;5185772;28;20123;-64
2021/04/05 11:07:08;;;;;;;5.57;1.67;;;13.80;27.90;;;;;;5189540;28;20450;-63
2021/04/05 11:09:43;;;;;;;3.47;1.83;;;13.90;26.90;;;;;;5187584;28;20042;-62
2021/04/05 11:12:17;;;;;;;4.72;1.88;;;13.90;27.60;;;;;;5188944;28;20172;-65
2021/04/05 11:14:51;;;;;;;2.83;1.63;;;13.80;27.40;;;;;;5191131;28;20041;-66
2021/04/05 11:17:24;;;;;;;4.50;2.00;;;13.90;27.20;;;;;;5190458;28;20060;-63
2021/04/05 11:19:56;;;;;;;5.78;1.95;;;13.90;28.90;;;;;;5186982;28;20054;-62
2021/04/05 11:22:30;;;;;;;5.68;2.15;;;14.10;27.70;;;;;;5190153;28;20049;-63
2021/04/05 11:25:10;;;;;;;3.20;1.98;;;13.90;27.40;;;;;;5189079;28;20042;-65
2021/04/05 11:27:48;;;;;;;3.35;1.92;;;13.90;27.50;;;;;;5190084;28;20053;-63
2021/04/05 11:30:25;;;;;;;4.47;2.30;;;13.80;27.30;;;;;;5188132;28;20046;-65
2021/04/05 11:32:57;;;;;;;4.07;2.00;;;14.00;26.80;;;;;;5187686;28;20081;-63
2021/04/05 11:35:31;;;;;;;5.03;2.10;;;14.10;27.30;;;;;;5189857;28;20495;-62
2021/04/05 11:38:07;;;;;;;4.28;2.25;;;14.20;27.00;;;;;;5190020;28;20072;-64
2021/04/05 11:40:40;;;;;;;4.13;1.77;;;14.00;27.50;;;;;;5189333;28;20037;-63
2021/04/05 11:43:18;;;;;;;5.18;2.53;;;14.00;28.20;;;;;;5187980;28;20780;-63
2021/04/05 11:45:59;;;;;;;3.85;1.90;;;14.00;27.10;;;;;;5192441;28;20411;-64
2021/04/05 11:48:31;;;;;;;3.67;1.95;;;14.20;27.60;;;;;;5190903;28;20038;-63
2021/04/05 11:51:04;;;;;;;4.50;2.08;;;14.50;27.10;;;;;;5189290;28;20446;-65
2021/04/05 11:53:48;;;;;;;4.82;2.40;;;14.60;26.80;;;;;;5195017;28;20048;-64
2021/04/05 11:56:26;;;;;;;5.00;2.20;;;14.80;26.50;;;;;;5185282;28;20768;-65
2021/04/05 11:59:16;;;;;;;4.70;2.22;;;15.00;26.40;;;;;;5190046;28;20128;-65
2021/04/05 12:01:57;;;;;;;7.22;2.38;;;15.10;26.60;;;;;;5188338;28;20077;-66
2021/04/05 12:04:47;;;;;;;5.20;2.10;;;14.60;28.00;;;;;;5190847;28;20449;-64
2021/04/05 12:07:23;;;;;;;5.40;2.47;;;14.80;27.60;;;;;;5187368;28;20049;-67
2021/04/05 12:10:17;;;;;;;4.25;2.03;;;14.80;26.00;;;;;;5190943;28;20758;-64
2021/04/05 12:13:18;;;;;;;5.85;2.10;;;14.90;26.20;;;;;;5189753;28;20141;-66
2021/04/05 12:15:57;;;;;;;5.15;2.47;;;15.00;27.00;;;;;;5188459;28;20041;-64
2021/04/05 12:18:29;;;;;;;4.68;2.50;;;15.20;27.50;;;;;;5190648;28;20045;-64
2021/04/05 12:21:09;;;;;;;4.53;2.30;;;15.30;27.00;;;;;;5185518;28;20095;-64
2021/04/05 12:23:53;;;;;;;4.65;2.05;;;15.10;26.80;;;;;;5192910;28;20503;-64
2021/04/05 12:26:30;;;;;;;3.90;2.30;;;14.80;28.20;;;;;;5186689;28;20037;-64
2021/04/05 12:29:10;;;;;;;4.75;2.30;;;14.80;27.90;;;;;;5190099;28;20053;-67
2021/04/05 12:31:42;;;;;;;5.13;2.55;;;15.10;28.00;;;;;;5190286;28;20045;-64
2021/04/05 12:34:15;;;;;;;6.15;2.53;;;15.10;27.10;;;;;;5190363;28;20045;-64
2021/04/05 12:36:47;;;;;;;4.50;2.30;;;15.00;28.10;;;;;;5189794;28;20566;-65
2021/04/05 12:39:18;;;;;;;9.75;2.28;;;15.10;27.70;;;;;;5195170;28;20742;-67
2021/04/05 12:41:52;;;;;;;4.70;2.30;;;15.30;26.90;;;;;;5189580;28;20141;-65
2021/04/05 12:44:27;;;;;;;6.25;2.70;;;15.50;27.30;;;;;;5189178;28;20065;-64
2021/04/05 12:47:02;;;;;;;5.07;2.30;;;15.40;27.10;;;;;;5190648;28;20045;-64
2021/04/05 12:49:42;;;;;;;5.43;2.33;;;15.20;26.60;;;;;;5188151;28;20052;-66
2021/04/05 12:52:19;;;;;;;5.45;2.65;;;15.20;27.30;;;;;;5186096;28;20721;-64
2021/04/05 12:54:53;;;;;;;4.53;2.40;;;15.10;27.50;;;;;;5185744;28;20042;-66
2021/04/05 12:57:30;;;;;;;7.28;2.22;;;15.00;26.40;;;;;;5183844;28;20137;-64
2021/04/05 13:00:06;;;;;;;5.22;2.28;;;15.10;27.50;;;;;;5188221;28;20132;-66
2021/04/05 13:02:39;;;;;;;4.93;2.40;;;15.00;27.40;;;;;;5188317;28;20397;-64
2021/04/05 13:05:21;;;;;;;3.63;1.95;;;15.00;28.40;;;;;;5187633;28;20050;-64
2021/04/05 13:08:01;;;;;;;4.68;2.10;;;15.20;27.80;;;;;;5185264;28;20052;-64
2021/04/05 13:10:48;;;;;;;4.35;2.33;;;15.30;27.70;;;;;;5193424;28;20041;-67
2021/04/05 13:13:22;;;;;;;5.03;2.47;;;15.50;28.30;;;;;;5187580;28;20045;-64
2021/04/05 13:16:01;;;;;;;5.55;2.70;;;15.70;26.70;;;;;;5185163;28;20041;-64
2021/04/05 13:18:56;;;;;;;4.15;2.30;;;15.80;26.20;;;;;;5194072;28;20048;-66
2021/04/05 13:21:35;;;;;;;5.13;2.22;;;15.50;26.70;;;;;;5184070;28;20053;-64
2021/04/05 13:24:18;;;;;;;4.38;2.10;;;15.50;26.00;;;;;;5187108;28;20466;-64
2021/04/05 13:26:58;;;;;;;5.38;2.38;;;15.30;25.70;;;;;;5187166;28;20050;-66
2021/04/05 13:29:34;;;;;;;4.90;2.53;;;15.40;27.10;;;;;;5186281;28;20042;-64
2021/04/05 13:32:09;;;;;;;6.15;2.83;;;15.50;26.20;;;;;;5184818;28;20049;-63
2021/04/05 13:34:42;;;;;;;6.03;2.20;;;15.80;26.90;;;;;;5185139;28;20061;-64
2021/04/05 13:37:15;;;;;;;4.90;2.40;;;16.20;27.00;;;;;;5186068;28;20503;-64
2021/04/05 13:39:51;;;;;;;3.90;2.38;;;16.10;25.40;;;;;;5187875;28;20103;-66
2021/04/05 13:42:26;;;;;;;5.43;2.38;;;16.00;25.40;;;;;;5184428;28;20060;-64
2021/04/05 13:45:14;;;;;;;4.40;2.08;;;15.70;26.30;;;;;;5183906;28;20767;-64
2021/04/05 13:47:48;;;;;;;5.40;2.33;;;15.60;24.80;;;;;;5184996;28;20046;-65
2021/04/05 13:50:26;;;;;;;6.18;2.50;;;15.10;25.70;;;;;;5186962;28;20070;-68
2021/04/05 13:52:59;;;;;;;5.97;2.40;;;15.00;25.80;;;;;;5184751;28;20041;-63
2021/04/05 13:55:36;;;;;;;4.95;2.47;;;14.80;25.10;;;;;;5184403;28;20092;-63
2021/04/05 13:58:13;;;;;;;6.32;2.33;;;14.80;25.80;;;;;;5188046;28;20138;-63